createdAt,value
2023-04-27T00:01:13.356Z,5.40
2023-04-27T00:03:41.345Z,5.50
2023-04-27T00:06:09.538Z,5.60
2023-04-27T00:08:36.358Z,5.70
2023-04-27T00:11:03.306Z,5.70
2023-04-27T00:13:29.982Z,5.70
2023-04-27T00:15:56.878Z,5.70
2023-04-27T00:18:23.556Z,5.80
2023-04-27T00:20:50.332Z,5.70
2023-04-27T00:23:17.245Z,5.60
2023-04-27T00:25:43.893Z,5.50
2023-04-27T00:28:10.635Z,5.40
2023-04-27T00:30:37.330Z,5.50
2023-04-27T00:33:04.078Z,5.60
2023-04-27T00:35:32.134Z,5.70
2023-04-27T00:37:58.873Z,5.70
2023-04-27T00:40:25.603Z,5.80
2023-04-27T00:42:52.295Z,5.90
2023-04-27T00:45:19.095Z,5.90
2023-04-27T00:47:46.288Z,5.90
2023-04-27T00:50:13.146Z,5.90
2023-04-27T00:52:40.736Z,5.90
2023-04-27T00:55:08.211Z,6.00
2023-04-27T00:57:34.916Z,6.10
2023-04-27T01:00:03.702Z,6.00
2023-04-27T01:02:33.641Z,5.90
2023-04-27T01:05:02.069Z,5.90
2023-04-27T01:07:29.257Z,5.90
2023-04-27T01:09:56.672Z,6.00
2023-04-27T01:12:23.572Z,6.00
2023-04-27T01:14:50.647Z,6.00
2023-04-27T01:17:18.309Z,6.10
2023-04-27T01:19:45.472Z,6.00
2023-04-27T01:22:12.675Z,5.90
2023-04-27T01:24:39.362Z,5.90
2023-04-27T01:27:06.302Z,5.90
2023-04-27T01:29:33.019Z,5.90
2023-04-27T01:31:59.901Z,5.90
2023-04-27T01:34:26.902Z,5.90
2023-04-27T01:36:53.583Z,5.80
2023-04-27T01:39:20.339Z,5.80
2023-04-27T01:41:47.171Z,5.80
2023-04-27T01:44:13.952Z,5.80
2023-04-27T01:46:41.434Z,5.90
2023-04-27T01:49:08.622Z,5.80
2023-04-27T01:51:35.979Z,5.80
2023-04-27T01:54:02.713Z,5.90
2023-04-27T01:56:29.653Z,6.00
2023-04-27T01:58:56.499Z,6.00
2023-04-27T02:01:23.209Z,6.10
2023-04-27T02:03:50.099Z,6.10
2023-04-27T02:06:17.188Z,6.00
2023-04-27T02:08:44.051Z,6.00
2023-04-27T02:11:10.762Z,5.80
2023-04-27T02:13:37.430Z,5.60
2023-04-27T02:16:05.262Z,5.50
2023-04-27T02:18:33.761Z,5.60
2023-04-27T02:21:00.724Z,5.50
2023-04-27T02:23:27.585Z,5.40
2023-04-27T02:25:54.458Z,5.20
2023-04-27T02:28:21.289Z,5.10
2023-04-27T02:30:48.464Z,5.20
2023-04-27T02:33:15.132Z,5.20
2023-04-27T02:35:41.904Z,5.20
2023-04-27T02:38:08.556Z,5.20
2023-04-27T02:40:35.413Z,5.20
2023-04-27T02:43:02.120Z,5.20
2023-04-27T02:45:29.794Z,5.10
2023-04-27T02:47:56.911Z,5.10
2023-04-27T02:50:23.622Z,5.00
2023-04-27T02:52:50.405Z,5.10
2023-04-27T02:55:17.593Z,5.10
2023-04-27T02:57:44.582Z,4.90
2023-04-27T03:00:12.332Z,4.80
2023-04-27T03:02:39.600Z,4.90
2023-04-27T03:05:07.177Z,4.90
2023-04-27T03:07:34.730Z,4.70
2023-04-27T03:10:01.646Z,4.60
2023-04-27T03:12:28.571Z,4.50
2023-04-27T03:14:55.652Z,4.40
2023-04-27T03:17:22.311Z,4.40
2023-04-27T03:19:49.336Z,4.30
2023-04-27T03:22:16.011Z,4.10
2023-04-27T03:24:43.169Z,4.10
2023-04-27T03:27:10.153Z,4.00
2023-04-27T03:29:37.177Z,3.90
2023-04-27T03:32:04.648Z,3.90
2023-04-27T03:34:31.750Z,3.80
2023-04-27T03:36:58.559Z,3.90
2023-04-27T03:39:25.266Z,3.80
2023-04-27T03:41:51.987Z,3.70
2023-04-27T03:44:18.675Z,3.70
2023-04-27T03:46:45.425Z,3.70
2023-04-27T03:49:12.664Z,3.70
2023-04-27T03:51:42.370Z,3.80
2023-04-27T03:54:10.364Z,3.70
2023-04-27T03:56:37.108Z,3.70
2023-04-27T03:59:06.812Z,3.70
2023-04-27T04:01:34.206Z,3.60
2023-04-27T04:04:01.243Z,3.60
2023-04-27T04:06:28.292Z,3.70
2023-04-27T04:08:55.521Z,3.70
2023-04-27T04:11:22.479Z,3.70
2023-04-27T04:13:49.219Z,3.70
2023-04-27T04:16:16.037Z,3.80
2023-04-27T04:18:43.372Z,3.90
2023-04-27T04:21:13.152Z,4.00
2023-04-27T04:23:41.332Z,4.00
2023-04-27T04:26:09.836Z,4.10
2023-04-27T04:28:37.477Z,4.30
2023-04-27T04:31:05.681Z,4.30
2023-04-27T04:33:33.659Z,4.40
2023-04-27T04:36:04.102Z,4.50
2023-04-27T04:38:31.120Z,4.60
2023-04-27T04:40:57.920Z,4.80
2023-04-27T04:43:25.485Z,4.90
2023-04-27T04:45:52.372Z,5.00
2023-04-27T04:48:20.213Z,5.20
2023-04-27T04:50:46.915Z,5.20
2023-04-27T04:53:13.750Z,5.00
2023-04-27T04:55:41.107Z,4.90
2023-04-27T04:58:08.004Z,5.00
2023-04-27T05:00:35.205Z,5.00
2023-04-27T05:03:02.206Z,5.00
2023-04-27T05:05:29.066Z,4.90
2023-04-27T05:07:55.746Z,4.90
2023-04-27T05:10:22.805Z,4.80
2023-04-27T05:12:49.462Z,4.80
2023-04-27T05:15:16.476Z,4.90
2023-04-27T05:17:43.281Z,4.90
2023-04-27T05:20:10.636Z,5.10
2023-04-27T05:22:37.425Z,5.20
2023-04-27T05:25:04.740Z,5.40
2023-04-27T05:27:31.461Z,5.50
2023-04-27T05:29:58.291Z,5.60
2023-04-27T05:32:25.065Z,5.80
2023-04-27T05:34:52.953Z,5.80
2023-04-27T05:37:19.745Z,5.90
2023-04-27T05:39:46.486Z,5.90
2023-04-27T05:42:13.235Z,6.00
2023-04-27T05:44:40.268Z,6.10
2023-04-27T05:47:07.073Z,6.20
2023-04-27T05:49:33.757Z,6.40
2023-04-27T05:52:00.811Z,6.60
2023-04-27T05:54:27.852Z,6.70
2023-04-27T05:56:54.545Z,6.70
2023-04-27T05:59:22.009Z,6.80
2023-04-27T06:01:48.997Z,6.90
2023-04-27T06:04:16.151Z,6.90
2023-04-27T06:06:42.995Z,7.00
2023-04-27T06:09:09.706Z,7.00
2023-04-27T06:11:37.484Z,7.10
2023-04-27T06:14:04.185Z,7.10
2023-04-27T06:16:30.890Z,7.10
2023-04-27T06:18:57.687Z,7.20
2023-04-27T06:21:24.364Z,7.30
2023-04-27T06:23:51.064Z,7.50
2023-04-27T06:26:17.726Z,7.60
2023-04-27T06:28:44.393Z,7.50
2023-04-27T06:31:11.177Z,7.70
2023-04-27T06:33:37.859Z,7.90
2023-04-27T06:36:04.699Z,8.10
2023-04-27T06:38:32.065Z,8.20
2023-04-27T06:40:59.273Z,8.20
2023-04-27T06:43:25.993Z,8.30
2023-04-27T06:45:52.833Z,8.30
2023-04-27T06:48:19.625Z,8.30
2023-04-27T06:50:46.906Z,8.40
2023-04-27T06:53:13.818Z,8.30
2023-04-27T06:55:43.470Z,8.40
2023-04-27T06:58:11.200Z,8.50
2023-04-27T07:00:37.944Z,8.70
2023-04-27T07:03:04.919Z,8.70
2023-04-27T07:05:33.485Z,8.80
2023-04-27T07:08:03.351Z,8.90
2023-04-27T07:10:32.216Z,9.10
2023-04-27T07:12:58.927Z,9.30
2023-04-27T07:15:26.041Z,9.60
2023-04-27T07:17:56.449Z,9.60
2023-04-27T07:20:23.778Z,9.70
2023-04-27T07:22:50.438Z,9.70
2023-04-27T07:25:17.420Z,9.80
2023-04-27T07:27:45.248Z,10.10
2023-04-27T07:30:14.098Z,10.30
2023-04-27T07:32:44.251Z,10.50
2023-04-27T07:35:11.117Z,10.50
2023-04-27T07:37:38.409Z,10.40
2023-04-27T07:40:16.799Z,10.60
2023-04-27T07:42:43.678Z,10.60
2023-04-27T07:45:10.606Z,10.70
2023-04-27T07:47:37.792Z,10.80
2023-04-27T07:50:06.975Z,10.80
2023-04-27T07:52:33.654Z,10.90
2023-04-27T07:55:00.555Z,11.10
2023-04-27T07:57:27.604Z,11.30
2023-04-27T07:59:54.447Z,11.20
2023-04-27T08:02:21.615Z,11.40
2023-04-27T08:04:50.177Z,11.40
2023-04-27T08:07:18.118Z,11.30
2023-04-27T08:09:45.045Z,11.00
2023-04-27T08:12:11.824Z,11.00
2023-04-27T08:14:38.734Z,11.00
2023-04-27T08:17:05.739Z,11.30
2023-04-27T08:19:32.530Z,11.40
2023-04-27T08:21:59.427Z,11.40
2023-04-27T08:24:26.206Z,11.70
2023-04-27T08:26:52.897Z,11.90
2023-04-27T08:29:27.762Z,11.80
2023-04-27T08:31:58.711Z,11.30
2023-04-27T08:34:25.747Z,11.70
2023-04-27T08:36:52.461Z,11.90
2023-04-27T08:39:19.383Z,12.20
2023-04-27T08:41:46.393Z,12.60
2023-04-27T08:44:13.326Z,12.00
2023-04-27T08:46:40.916Z,11.80
2023-04-27T08:49:08.155Z,12.00
2023-04-27T08:51:35.499Z,12.20
2023-04-27T08:54:02.819Z,12.20
2023-04-27T08:56:31.100Z,12.60
2023-04-27T08:58:58.529Z,12.90
2023-04-27T09:01:26.294Z,12.70
2023-04-27T09:03:57.797Z,12.80
2023-04-27T09:06:35.868Z,12.80
2023-04-27T09:09:03.815Z,13.10
2023-04-27T09:11:38.709Z,12.90
2023-04-27T09:14:20.095Z,13.20
2023-04-27T09:16:58.538Z,13.60
2023-04-27T09:19:29.778Z,14.10
2023-04-27T09:22:15.485Z,14.20
2023-04-27T09:24:52.203Z,13.40
2023-04-27T09:27:22.970Z,12.90
2023-04-27T09:29:49.730Z,13.10
2023-04-27T09:32:21.018Z,13.60
2023-04-27T09:34:48.105Z,13.80
2023-04-27T09:37:15.579Z,13.60
2023-04-27T09:39:42.696Z,13.90
2023-04-27T09:42:10.949Z,13.80
2023-04-27T09:44:37.635Z,13.40
2023-04-27T09:47:05.545Z,13.10
2023-04-27T09:49:35.116Z,13.60
2023-04-27T09:52:01.912Z,13.60
2023-04-27T09:54:33.522Z,13.70
2023-04-27T09:57:08.725Z,13.90
2023-04-27T10:00:26.260Z,14.40
2023-04-27T10:03:03.129Z,15.10
2023-04-27T10:05:30.194Z,15.40
2023-04-27T10:07:57.365Z,15.90
2023-04-27T10:10:24.080Z,16.00
2023-04-27T10:13:01.299Z,16.10
2023-04-27T10:15:29.384Z,16.20
2023-04-27T10:17:59.165Z,16.60
2023-04-27T10:20:35.853Z,16.90
2023-04-27T10:23:02.627Z,16.50
2023-04-27T10:25:37.234Z,15.90
2023-04-27T10:28:04.586Z,15.70
2023-04-27T10:30:36.501Z,15.10
2023-04-27T10:33:09.600Z,15.30
2023-04-27T10:35:42.758Z,14.90
2023-04-27T10:38:10.748Z,15.00
2023-04-27T10:40:38.380Z,15.60
2023-04-27T10:43:12.719Z,15.90
2023-04-27T10:45:40.452Z,16.10
2023-04-27T10:48:07.669Z,16.20
2023-04-27T10:50:35.083Z,16.30
2023-04-27T10:53:07.243Z,16.10
2023-04-27T10:55:35.383Z,15.80
2023-04-27T10:58:03.236Z,16.00
2023-04-27T11:00:32.748Z,15.50
2023-04-27T11:03:21.482Z,15.70
2023-04-27T11:05:50.323Z,16.20
2023-04-27T11:08:19.327Z,16.30
2023-04-27T11:10:50.039Z,16.10
2023-04-27T11:13:24.945Z,15.80
2023-04-27T11:15:52.561Z,16.00
2023-04-27T11:18:21.133Z,16.60
2023-04-27T11:21:12.558Z,16.80
2023-04-27T11:23:40.081Z,17.00
2023-04-27T11:26:14.816Z,17.10
2023-04-27T11:28:56.946Z,17.10
2023-04-27T11:31:23.751Z,17.50
2023-04-27T11:33:51.775Z,17.10
2023-04-27T11:36:19.761Z,16.60
2023-04-27T11:38:46.578Z,16.50
2023-04-27T11:41:13.681Z,16.30
2023-04-27T11:43:49.287Z,16.00
2023-04-27T11:46:19.755Z,15.80
2023-04-27T11:48:46.849Z,15.60
2023-04-27T11:51:13.566Z,15.80
2023-04-27T11:53:40.605Z,16.40
2023-04-27T11:56:10.623Z,16.80
2023-04-27T11:58:38.924Z,17.00
2023-04-27T12:01:06.400Z,17.30
2023-04-27T12:03:33.382Z,16.80
2023-04-27T12:06:16.163Z,16.10
2023-04-27T12:08:47.088Z,15.60
2023-04-27T12:11:13.841Z,16.00
2023-04-27T12:13:40.862Z,16.50
2023-04-27T12:16:07.643Z,16.00
2023-04-27T12:18:34.378Z,16.50
2023-04-27T12:21:02.930Z,16.80
2023-04-27T12:23:30.125Z,16.50
2023-04-27T12:25:56.860Z,16.50
2023-04-27T12:28:23.550Z,16.30
2023-04-27T12:30:50.482Z,16.20
2023-04-27T12:33:17.314Z,16.20
2023-04-27T12:35:44.172Z,16.60
2023-04-27T12:38:10.867Z,16.80
2023-04-27T12:40:37.933Z,17.30
2023-04-27T12:43:04.768Z,17.10
2023-04-27T12:45:31.580Z,17.20
2023-04-27T12:48:03.968Z,17.40
2023-04-27T12:50:32.581Z,17.60
2023-04-27T12:53:00.233Z,17.90
2023-04-27T12:55:33.857Z,17.90
2023-04-27T12:58:02.163Z,18.20
2023-04-27T13:00:29.879Z,18.20
2023-04-27T13:02:57.628Z,18.50
2023-04-27T13:05:24.500Z,18.60
2023-04-27T13:07:52.429Z,18.40
2023-04-27T13:10:19.145Z,18.00
2023-04-27T13:12:45.938Z,18.40
2023-04-27T13:15:12.745Z,18.50
2023-04-27T13:17:40.293Z,18.60
2023-04-27T13:20:09.056Z,18.90
2023-04-27T13:22:35.751Z,19.00
2023-04-27T13:25:02.422Z,19.30
2023-04-27T13:27:29.340Z,19.50
2023-04-27T13:29:56.098Z,19.20
2023-04-27T13:32:23.086Z,19.10
2023-04-27T13:34:49.943Z,19.30
2023-04-27T13:37:17.400Z,19.10
2023-04-27T13:39:44.110Z,19.40
2023-04-27T13:42:11.572Z,19.60
2023-04-27T13:44:38.248Z,19.00
2023-04-27T13:47:05.236Z,18.40
2023-04-27T13:49:32.139Z,18.10
2023-04-27T13:51:59.615Z,17.60
2023-04-27T13:54:27.260Z,17.50
2023-04-27T13:56:54.497Z,17.40
2023-04-27T13:59:21.735Z,17.30
2023-04-27T14:01:48.946Z,17.10
2023-04-27T14:04:15.872Z,16.90
2023-04-27T14:06:42.593Z,17.00
2023-04-27T14:09:10.584Z,17.00
2023-04-27T14:11:52.360Z,17.20
2023-04-27T14:14:22.818Z,17.70
2023-04-27T14:16:51.562Z,18.30
2023-04-27T14:19:20.318Z,18.40
2023-04-27T14:21:48.126Z,18.30
2023-04-27T14:24:17.369Z,17.70
2023-04-27T14:26:45.301Z,16.90
2023-04-27T14:29:12.144Z,16.30
2023-04-27T14:31:40.301Z,16.20
2023-04-27T14:34:08.179Z,16.20
2023-04-27T14:36:34.887Z,15.90
2023-04-27T14:39:01.654Z,15.60
2023-04-27T14:41:28.753Z,15.50
2023-04-27T14:43:55.962Z,15.30
2023-04-27T14:46:23.173Z,15.10
2023-04-27T14:48:50.677Z,15.00
2023-04-27T14:51:17.525Z,15.10
2023-04-27T14:53:44.544Z,15.10
2023-04-27T14:56:11.826Z,15.20
2023-04-27T14:58:39.031Z,15.30
2023-04-27T15:01:06.983Z,15.40
2023-04-27T15:03:34.091Z,15.50
2023-04-27T15:06:01.987Z,15.70
2023-04-27T15:08:31.330Z,15.60
2023-04-27T15:10:59.974Z,15.50
2023-04-27T15:13:27.737Z,15.50
2023-04-27T15:15:59.101Z,15.40
2023-04-27T15:18:26.125Z,15.30
2023-04-27T15:20:53.841Z,15.20
2023-04-27T15:23:21.730Z,15.40
2023-04-27T15:25:49.214Z,15.50
2023-04-27T15:28:16.705Z,15.70
2023-04-27T15:30:45.390Z,15.90
2023-04-27T15:33:13.273Z,15.80
2023-04-27T15:35:40.532Z,15.80
2023-04-27T15:38:09.365Z,16.00
2023-04-27T15:40:36.224Z,16.20
2023-04-27T15:43:03.173Z,16.50
2023-04-27T15:45:29.962Z,16.60
2023-04-27T15:47:56.860Z,16.60
2023-04-27T15:50:24.322Z,16.20
2023-04-27T15:52:51.254Z,15.90
2023-04-27T15:55:18.093Z,15.90
2023-04-27T15:57:44.800Z,16.00
2023-04-27T16:00:12.056Z,16.20
2023-04-27T16:02:39.879Z,16.30
2023-04-27T16:05:07.963Z,16.40
2023-04-27T16:07:36.354Z,16.20
2023-04-27T16:10:03.958Z,16.00
2023-04-27T16:12:30.797Z,16.00
2023-04-27T16:14:57.527Z,15.80
2023-04-27T16:17:25.705Z,16.00
2023-04-27T16:19:52.427Z,16.10
2023-04-27T16:22:19.136Z,16.10
2023-04-27T16:24:45.858Z,16.30
2023-04-27T16:27:12.625Z,16.40
2023-04-27T16:29:39.400Z,16.50
2023-04-27T16:32:06.723Z,16.40
2023-04-27T16:34:33.416Z,16.50
2023-04-27T16:37:00.125Z,16.30
2023-04-27T16:39:26.981Z,16.40
2023-04-27T16:41:53.747Z,16.30
2023-04-27T16:44:24.244Z,16.10
2023-04-27T16:46:52.007Z,16.10
2023-04-27T16:49:19.398Z,16.10
2023-04-27T16:51:46.238Z,15.90
2023-04-27T16:54:16.242Z,15.70
2023-04-27T16:56:43.003Z,15.70
2023-04-27T16:59:12.562Z,15.60
2023-04-27T17:01:40.541Z,15.70
2023-04-27T17:04:07.627Z,15.60
2023-04-27T17:06:34.869Z,15.50
2023-04-27T17:09:01.576Z,15.50
2023-04-27T17:11:28.469Z,15.40
2023-04-27T17:13:55.200Z,15.30
2023-04-27T17:16:22.208Z,15.10
2023-04-27T17:18:49.072Z,15.10
2023-04-27T17:21:17.172Z,15.00
2023-04-27T17:23:46.550Z,14.90
2023-04-27T17:26:15.878Z,14.80
2023-04-27T17:28:42.652Z,14.70
2023-04-27T17:31:09.389Z,14.60
2023-04-27T17:33:36.367Z,14.60
2023-04-27T17:36:03.196Z,14.40
2023-04-27T17:38:29.922Z,14.30
2023-04-27T17:40:56.669Z,14.20
2023-04-27T17:43:23.378Z,14.10
2023-04-27T17:45:50.453Z,14.10
2023-04-27T17:48:17.753Z,14.00
2023-04-27T17:50:44.534Z,13.90
2023-04-27T17:53:11.192Z,13.80
2023-04-27T17:55:37.931Z,13.80
2023-04-27T17:58:06.250Z,13.70
2023-04-27T18:00:33.455Z,13.50
2023-04-27T18:03:00.723Z,13.50
2023-04-27T18:05:27.686Z,13.40
2023-04-27T18:07:54.360Z,13.30
2023-04-27T18:10:21.319Z,13.20
2023-04-27T18:12:48.082Z,13.20
2023-04-27T18:15:14.861Z,13.10
2023-04-27T18:17:41.614Z,13.10
2023-04-27T18:20:10.411Z,13.00
2023-04-27T18:22:39.342Z,12.90
2023-04-27T18:25:06.799Z,12.90
2023-04-27T18:27:33.531Z,12.80
2023-04-27T18:30:00.414Z,12.70
2023-04-27T18:32:27.179Z,12.60
2023-04-27T18:34:54.011Z,12.50
2023-04-27T18:37:20.890Z,12.40
2023-04-27T18:39:47.616Z,12.40
2023-04-27T18:42:14.783Z,12.40
2023-04-27T18:44:42.081Z,12.30
2023-04-27T18:47:08.783Z,12.30
2023-04-27T18:49:35.816Z,12.10
2023-04-27T18:52:02.581Z,12.00
2023-04-27T18:54:29.267Z,11.90
2023-04-27T18:56:56.292Z,11.90
2023-04-27T18:59:22.958Z,11.90
2023-04-27T19:01:49.875Z,11.80
2023-04-27T19:04:16.937Z,11.80
2023-04-27T19:06:43.788Z,11.70
2023-04-27T19:09:11.143Z,11.60
2023-04-27T19:11:37.892Z,11.50
2023-04-27T19:14:05.224Z,11.40
2023-04-27T19:16:32.054Z,11.30
2023-04-27T19:18:58.808Z,11.40
2023-04-27T19:21:26.048Z,11.40
2023-04-27T19:23:52.740Z,11.30
2023-04-27T19:26:19.430Z,11.30
2023-04-27T19:28:46.551Z,11.30
2023-04-27T19:31:13.971Z,11.20
2023-04-27T19:33:46.739Z,11.10
2023-04-27T19:36:14.160Z,11.00
2023-04-27T19:38:41.112Z,10.90
2023-04-27T19:41:07.852Z,10.80
2023-04-27T19:43:34.514Z,10.80
2023-04-27T19:46:01.836Z,10.70
2023-04-27T19:48:28.618Z,10.60
2023-04-27T19:50:55.485Z,10.50
2023-04-27T19:53:22.568Z,10.40
2023-04-27T19:55:49.269Z,10.30
2023-04-27T19:58:16.094Z,10.30
2023-04-27T20:00:42.986Z,10.30
2023-04-27T20:03:12.524Z,10.30
2023-04-27T20:05:39.830Z,10.20
2023-04-27T20:08:06.979Z,10.20
2023-04-27T20:10:34.179Z,10.20
2023-04-27T20:13:01.100Z,10.30
2023-04-27T20:15:27.902Z,10.20
2023-04-27T20:17:54.739Z,10.20
2023-04-27T20:20:21.459Z,10.20
2023-04-27T20:22:48.335Z,10.10
2023-04-27T20:25:15.590Z,10.00
2023-04-27T20:27:42.381Z,9.90
2023-04-27T20:30:09.539Z,9.80
2023-04-27T20:32:36.434Z,9.70
2023-04-27T20:35:04.839Z,9.60
2023-04-27T20:37:32.390Z,9.70
2023-04-27T20:39:59.360Z,9.70
2023-04-27T20:42:26.214Z,9.70
2023-04-27T20:44:54.879Z,9.70
2023-04-27T20:47:21.954Z,9.70
2023-04-27T20:49:48.860Z,9.70
2023-04-27T20:52:15.823Z,9.60
2023-04-27T20:54:42.566Z,9.50
2023-04-27T20:57:13.592Z,9.40
2023-04-27T20:59:41.114Z,9.50
2023-04-27T21:02:08.137Z,9.60
2023-04-27T21:04:34.954Z,9.70
2023-04-27T21:07:01.744Z,9.80
2023-04-27T21:09:28.473Z,9.70
2023-04-27T21:11:55.298Z,9.60
2023-04-27T21:14:22.083Z,9.40
2023-04-27T21:16:48.976Z,9.30
2023-04-27T21:19:17.162Z,9.20
2023-04-27T21:21:44.048Z,9.00
2023-04-27T21:24:10.757Z,9.00
2023-04-27T21:26:37.708Z,8.90
2023-04-27T21:29:05.981Z,8.90
2023-04-27T21:31:33.404Z,8.90
2023-04-27T21:34:00.950Z,8.80
2023-04-27T21:36:27.688Z,8.70
2023-04-27T21:38:54.564Z,8.70
2023-04-27T21:41:21.545Z,8.70
2023-04-27T21:43:48.211Z,8.70
2023-04-27T21:46:14.996Z,8.70
2023-04-27T21:48:41.697Z,8.70
2023-04-27T21:51:08.588Z,8.70
2023-04-27T21:53:35.318Z,8.80
2023-04-27T21:56:01.996Z,8.80
2023-04-27T21:58:28.680Z,8.80
2023-04-27T22:00:55.505Z,8.90
2023-04-27T22:03:23.042Z,8.90
2023-04-27T22:05:50.280Z,8.90
2023-04-27T22:08:17.783Z,8.90
2023-04-27T22:10:45.454Z,8.80
2023-04-27T22:13:18.346Z,8.80
2023-04-27T22:15:46.920Z,8.70
2023-04-27T22:18:14.959Z,8.70
2023-04-27T22:20:42.555Z,8.80
2023-04-27T22:23:09.642Z,8.70
2023-04-27T22:25:36.698Z,8.70
2023-04-27T22:28:03.453Z,8.60
2023-04-27T22:30:30.828Z,8.50
2023-04-27T22:32:57.775Z,8.60
2023-04-27T22:35:27.586Z,8.60
2023-04-27T22:37:59.715Z,8.70
2023-04-27T22:40:26.657Z,8.70
2023-04-27T22:42:56.161Z,8.60
2023-04-27T22:45:23.725Z,8.40
2023-04-27T22:47:50.952Z,8.30
2023-04-27T22:50:17.841Z,8.30
2023-04-27T22:52:44.896Z,8.30
2023-04-27T22:55:12.458Z,8.30
2023-04-27T22:57:41.716Z,8.30
2023-04-27T23:00:11.253Z,8.30
2023-04-27T23:02:42.144Z,8.40
2023-04-27T23:05:10.770Z,8.50
2023-04-27T23:07:38.036Z,8.50
2023-04-27T23:10:05.872Z,8.50
2023-04-27T23:12:33.178Z,8.50
2023-04-27T23:14:59.957Z,8.60
2023-04-27T23:17:32.676Z,8.60
2023-04-27T23:20:01.512Z,8.70
2023-04-27T23:22:28.844Z,8.70
2023-04-27T23:24:56.518Z,8.60
2023-04-27T23:27:24.733Z,8.50
2023-04-27T23:29:51.827Z,8.40
2023-04-27T23:32:18.777Z,8.40
2023-04-27T23:34:45.514Z,8.30
2023-04-27T23:37:12.599Z,8.20
2023-04-27T23:39:39.290Z,8.20
2023-04-27T23:42:06.298Z,8.20
2023-04-27T23:44:32.991Z,8.10
2023-04-27T23:46:59.666Z,8.10
2023-04-27T23:49:26.359Z,8.10
2023-04-27T23:51:53.091Z,8.10
2023-04-27T23:54:19.790Z,8.00
2023-04-27T23:56:47.167Z,8.00
2023-04-27T23:59:15.049Z,8.00
